createdAt,value
2023-01-23T00:01:35.256Z,98306.89
2023-01-23T00:04:04.312Z,98301.84
2023-01-23T00:06:32.319Z,98313.31
2023-01-23T00:09:01.077Z,98308.52
2023-01-23T00:11:31.498Z,98315.98
2023-01-23T00:14:01.102Z,98314.36
2023-01-23T00:16:32.967Z,98313.57
2023-01-23T00:19:03.800Z,98309.28
2023-01-23T00:21:31.511Z,98312.48
2023-01-23T00:24:01.314Z,98314.63
2023-01-23T00:26:34.867Z,98310.08
2023-01-23T00:29:04.499Z,98312.20
2023-01-23T00:31:36.821Z,98311.67
2023-01-23T00:34:08.157Z,98317.55
2023-01-23T00:36:44.124Z,98317.52
2023-01-23T00:39:16.995Z,98315.64
2023-01-23T00:41:47.221Z,98322.86
2023-01-23T00:44:16.102Z,98317.23
2023-01-23T00:46:44.396Z,98320.19
2023-01-23T00:49:12.798Z,98327.38
2023-01-23T00:51:40.730Z,98324.96
2023-01-23T00:54:08.576Z,98323.38
2023-01-23T00:56:36.360Z,98320.95
2023-01-23T00:59:04.216Z,98323.88
2023-01-23T01:01:32.308Z,98324.70
2023-01-23T01:04:00.624Z,98320.95
2023-01-23T01:06:30.034Z,98329.52
2023-01-23T01:08:59.610Z,98327.13
2023-01-23T01:11:27.186Z,98332.19
2023-01-23T01:13:55.177Z,98330.30
2023-01-23T01:16:25.152Z,98329.52
2023-01-23T01:18:53.055Z,98334.85
2023-01-23T01:21:20.851Z,98327.38
2023-01-23T01:23:48.692Z,98331.64
2023-01-23T01:26:17.800Z,98326.30
2023-01-23T01:28:47.603Z,98327.63
2023-01-23T01:31:16.561Z,98333.48
2023-01-23T01:33:45.197Z,98332.44
2023-01-23T01:36:16.462Z,98333.23
2023-01-23T01:38:46.472Z,98341.21
2023-01-23T01:41:15.787Z,98345.50
2023-01-23T01:43:44.239Z,98352.44
2023-01-23T01:46:25.537Z,98348.69
2023-01-23T01:49:22.065Z,98354.03
2023-01-23T01:51:58.095Z,98354.28
2023-01-23T01:54:55.404Z,98355.62
2023-01-23T01:57:33.445Z,98354.57
2023-01-23T02:00:17.306Z,98355.91
2023-01-23T02:03:01.043Z,98360.71
2023-01-23T02:05:45.318Z,98362.33
2023-01-23T02:08:48.724Z,98367.42
2023-01-23T02:11:18.091Z,98369.02
2023-01-23T02:13:46.001Z,98367.97
2023-01-23T02:16:19.080Z,98364.24
2023-01-23T02:18:53.227Z,98365.83
2023-01-23T02:21:25.366Z,98367.45
2023-01-23T02:24:04.967Z,98368.50
2023-01-23T02:26:37.850Z,98368.50
2023-01-23T02:29:06.452Z,98383.48
2023-01-23T02:31:36.868Z,98382.69
2023-01-23T02:34:05.825Z,98384.81
2023-01-23T02:36:35.060Z,98381.86
2023-01-23T02:39:08.263Z,98387.23
2023-01-23T02:41:40.679Z,98382.67
2023-01-23T02:44:28.654Z,98386.97
2023-01-23T02:47:03.408Z,98384.58
2023-01-23T02:49:31.366Z,98390.45
2023-01-23T02:51:59.869Z,98390.98
2023-01-23T02:54:27.941Z,98389.39
2023-01-23T02:56:57.904Z,98393.65
2023-01-23T02:59:44.534Z,98388.05
2023-01-23T03:02:14.037Z,98386.73
2023-01-23T03:04:42.028Z,98386.73
2023-01-23T03:07:10.371Z,98390.21
2023-01-23T03:09:39.121Z,98392.34
2023-01-23T03:12:08.689Z,98392.35
2023-01-23T03:14:37.024Z,98393.16
2023-01-23T03:17:04.954Z,98390.23
2023-01-23T03:19:35.293Z,98390.76
2023-01-23T03:22:03.298Z,98396.88
2023-01-23T03:24:34.557Z,98399.03
2023-01-23T03:27:02.711Z,98401.70
2023-01-23T03:29:50.525Z,98397.42
2023-01-23T03:32:18.529Z,98394.75
2023-01-23T03:34:46.682Z,98387.27
2023-01-23T03:37:14.944Z,98398.77
2023-01-23T03:40:02.648Z,98403.02
2023-01-23T03:42:35.253Z,98396.62
2023-01-23T03:45:05.617Z,98400.35
2023-01-23T03:47:34.783Z,98406.22
2023-01-23T03:50:02.922Z,98408.87
2023-01-23T03:52:32.779Z,98408.86
2023-01-23T03:55:00.825Z,98408.34
2023-01-23T03:57:28.687Z,98410.20
2023-01-23T04:00:01.311Z,98406.73
2023-01-23T04:02:31.664Z,98406.98
2023-01-23T04:04:59.640Z,98411.26
2023-01-23T04:07:27.625Z,98405.91
2023-01-23T04:09:55.329Z,98410.19
2023-01-23T04:12:23.151Z,98411.23
2023-01-23T04:14:50.912Z,98421.38
2023-01-23T04:17:18.616Z,98420.29
2023-01-23T04:19:46.540Z,98421.11
2023-01-23T04:22:14.521Z,98420.55
2023-01-23T04:24:44.280Z,98428.81
2023-01-23T04:27:12.375Z,98426.67
2023-01-23T04:29:40.338Z,98427.19
2023-01-23T04:32:09.481Z,98429.33
2023-01-23T04:34:39.179Z,98441.58
2023-01-23T04:37:07.314Z,98440.50
2023-01-23T04:39:35.080Z,98436.48
2023-01-23T04:42:03.078Z,98447.69
2023-01-23T04:44:50.467Z,98445.01
2023-01-23T04:47:27.418Z,98450.86
2023-01-23T04:49:56.035Z,98444.71
2023-01-23T04:52:23.577Z,98447.65
2023-01-23T04:54:56.207Z,98445.77
2023-01-23T04:57:24.415Z,98446.03
2023-01-23T04:59:54.274Z,98455.86
2023-01-23T05:02:22.406Z,98455.08
2023-01-23T05:04:50.541Z,98455.08
2023-01-23T05:07:19.147Z,98455.32
2023-01-23T05:09:48.600Z,98461.19
2023-01-23T05:12:17.720Z,98462.25
2023-01-23T05:14:45.447Z,98463.83
2023-01-23T05:17:14.669Z,98465.70
2023-01-23T05:19:44.153Z,98464.90
2023-01-23T05:22:12.451Z,98468.34
2023-01-23T05:24:40.174Z,98474.73
2023-01-23T05:27:09.158Z,98474.21
2023-01-23T05:29:38.776Z,98476.34
2023-01-23T05:32:14.426Z,98474.72
2023-01-23T05:34:44.840Z,98480.05
2023-01-23T05:37:22.102Z,98480.31
2023-01-23T05:39:52.018Z,98484.05
2023-01-23T05:42:20.076Z,98475.77
2023-01-23T05:44:49.705Z,98482.72
2023-01-23T05:47:21.940Z,98478.70
2023-01-23T05:49:50.032Z,98480.83
2023-01-23T05:52:18.102Z,98488.80
2023-01-23T05:54:46.250Z,98487.76
2023-01-23T05:57:14.339Z,98495.75
2023-01-23T05:59:53.581Z,98490.95
2023-01-23T06:02:23.240Z,98498.13
2023-01-23T06:05:09.661Z,98501.61
2023-01-23T06:07:48.694Z,98499.47
2023-01-23T06:10:16.684Z,98498.19
2023-01-23T06:12:44.571Z,98501.17
2023-01-23T06:15:12.611Z,98497.80
2023-01-23T06:17:40.595Z,98502.36
2023-01-23T06:20:10.459Z,98505.58
2023-01-23T06:22:39.198Z,98501.66
2023-01-23T06:25:09.572Z,98507.64
2023-01-23T06:27:37.781Z,98508.74
2023-01-23T06:30:08.747Z,98515.45
2023-01-23T06:32:38.522Z,98515.97
2023-01-23T06:35:07.537Z,98512.76
2023-01-23T06:37:37.014Z,98514.37
2023-01-23T06:40:05.901Z,98517.27
2023-01-23T06:42:33.982Z,98520.63
2023-01-23T06:45:02.135Z,98522.09
2023-01-23T06:47:30.731Z,98521.70
2023-01-23T06:50:01.926Z,98520.75
2023-01-23T06:52:31.139Z,98528.30
2023-01-23T06:54:59.349Z,98531.61
2023-01-23T06:57:27.616Z,98525.64
2023-01-23T06:59:58.737Z,98534.02
2023-01-23T07:02:26.737Z,98530.86
2023-01-23T07:04:55.732Z,98531.70
2023-01-23T07:07:23.357Z,98532.48
2023-01-23T07:09:51.203Z,98534.07
2023-01-23T07:12:21.129Z,98530.55
2023-01-23T07:14:49.059Z,98540.45
2023-01-23T07:17:18.592Z,98536.61
2023-01-23T07:19:46.727Z,98538.95
2023-01-23T07:22:21.339Z,98534.06
2023-01-23T07:24:48.904Z,98540.44
2023-01-23T07:27:16.585Z,98535.27
2023-01-23T07:29:44.358Z,98538.67
2023-01-23T07:32:12.234Z,98536.47
2023-01-23T07:34:40.055Z,98538.54
2023-01-23T07:37:07.820Z,98539.05
2023-01-23T07:39:35.480Z,98541.64
2023-01-23T07:42:03.301Z,98539.16
2023-01-23T07:44:30.851Z,98544.75
2023-01-23T07:46:58.578Z,98536.63
2023-01-23T07:49:26.341Z,98534.91
2023-01-23T07:51:53.829Z,98538.05
2023-01-23T07:54:21.674Z,98534.79
2023-01-23T07:56:50.675Z,98543.78
2023-01-23T07:59:18.461Z,98544.97
2023-01-23T08:01:46.322Z,98543.27
2023-01-23T08:04:14.274Z,98543.45
2023-01-23T08:06:41.952Z,98549.27
2023-01-23T08:09:09.602Z,98543.00
2023-01-23T08:11:37.223Z,98541.57
2023-01-23T08:14:05.025Z,98539.92
2023-01-23T08:16:32.697Z,98530.67
2023-01-23T08:19:00.523Z,98533.33
2023-01-23T08:21:29.196Z,98533.20
2023-01-23T08:23:57.067Z,98539.86
2023-01-23T08:26:24.837Z,98542.66
2023-01-23T08:28:52.784Z,98540.36
2023-01-23T08:31:20.862Z,98540.73
2023-01-23T08:33:48.683Z,98535.22
2023-01-23T08:36:16.586Z,98539.52
2023-01-23T08:38:44.271Z,98538.23
2023-01-23T08:41:12.102Z,98540.61
2023-01-23T08:43:41.088Z,98536.34
2023-01-23T08:46:10.169Z,98534.84
2023-01-23T08:48:40.671Z,98536.03
2023-01-23T08:51:12.443Z,98537.45
2023-01-23T08:53:41.375Z,98525.05
2023-01-23T08:56:17.113Z,98532.88
2023-01-23T08:58:45.604Z,98535.04
2023-01-23T09:01:20.488Z,98528.31
2023-01-23T09:03:48.277Z,98534.22
2023-01-23T09:06:20.177Z,98526.03
2023-01-23T09:08:48.044Z,98523.53
2023-01-23T09:11:22.808Z,98513.59
2023-01-23T09:13:52.937Z,98520.91
2023-01-23T09:16:20.135Z,98517.13
2023-01-23T09:18:47.853Z,98524.27
2023-01-23T09:21:17.497Z,98521.08
2023-01-23T09:23:45.647Z,98519.64
2023-01-23T09:26:14.687Z,98518.88
2023-01-23T09:28:43.091Z,98514.36
2023-01-23T09:31:13.492Z,98510.16
2023-01-23T09:33:42.299Z,98505.66
2023-01-23T09:36:13.044Z,98508.33
2023-01-23T09:38:40.894Z,98502.23
2023-01-23T09:41:19.514Z,98508.83
2023-01-23T09:44:06.001Z,98501.23
2023-01-23T09:46:51.378Z,98504.11
2023-01-23T09:49:52.666Z,98503.74
2023-01-23T09:52:24.422Z,98503.58
2023-01-23T09:55:03.677Z,98496.70
2023-01-23T09:57:36.047Z,98496.09
2023-01-23T10:00:21.558Z,98497.20
2023-01-23T10:02:49.890Z,98490.14
2023-01-23T10:05:20.889Z,98493.88
2023-01-23T10:08:08.553Z,98494.53
2023-01-23T10:10:54.011Z,98494.13
2023-01-23T10:14:00.340Z,98486.02
2023-01-23T10:16:52.170Z,98489.36
2023-01-23T10:19:44.846Z,98491.66
2023-01-23T10:22:29.773Z,98491.48
2023-01-23T10:24:58.814Z,98484.72
2023-01-23T10:27:39.177Z,98488.27
2023-01-23T10:30:27.857Z,98484.66
2023-01-23T10:33:00.682Z,98489.20
2023-01-23T10:35:54.855Z,98486.16
2023-01-23T10:39:00.503Z,98482.84
2023-01-23T10:41:28.647Z,98481.34
2023-01-23T10:43:57.145Z,98483.56
2023-01-23T10:46:35.216Z,98484.31
2023-01-23T10:49:04.294Z,98475.25
2023-01-23T10:51:45.446Z,98467.21
2023-01-23T10:54:31.221Z,98468.67
2023-01-23T10:57:07.068Z,98470.95
2023-01-23T11:00:02.590Z,98456.67
2023-01-23T11:02:34.864Z,98466.38
2023-01-23T11:05:23.839Z,98460.66
2023-01-23T11:07:55.623Z,98467.33
2023-01-23T11:10:27.690Z,98469.16
2023-01-23T11:12:56.109Z,98477.27
2023-01-23T11:15:31.374Z,98464.88
2023-01-23T11:18:00.600Z,98460.25
2023-01-23T11:20:38.238Z,98459.20
2023-01-23T11:23:12.032Z,98469.78
2023-01-23T11:25:43.868Z,98459.05
2023-01-23T11:28:31.217Z,98458.41
2023-01-23T11:31:17.478Z,98452.45
2023-01-23T11:33:57.516Z,98445.16
2023-01-23T11:36:31.351Z,98442.61
2023-01-23T11:39:02.233Z,98437.28
2023-01-23T11:41:32.867Z,98433.31
2023-01-23T11:44:03.824Z,98431.94
2023-01-23T11:46:54.827Z,98432.81
2023-01-23T11:49:29.016Z,98426.20
2023-01-23T11:52:12.065Z,98424.21
2023-01-23T11:55:02.784Z,98429.31
2023-01-23T11:57:48.846Z,98420.58
2023-01-23T12:00:44.333Z,98424.53
2023-01-23T12:03:15.273Z,98428.69
2023-01-23T12:06:19.970Z,98420.58
2023-01-23T12:09:02.952Z,98428.77
2023-01-23T12:11:33.903Z,98431.55
2023-01-23T12:14:19.871Z,98433.53
2023-01-23T12:17:04.721Z,98424.05
2023-01-23T12:19:58.856Z,98424.19
2023-01-23T12:22:36.131Z,98420.47
2023-01-23T12:25:16.074Z,98430.42
2023-01-23T12:27:54.969Z,98427.95
2023-01-23T12:30:36.857Z,98428.41
2023-01-23T12:33:23.871Z,98432.23
2023-01-23T12:36:12.712Z,98431.11
2023-01-23T12:39:00.326Z,98428.17
2023-01-23T12:41:43.776Z,98430.16
2023-01-23T12:44:14.684Z,98436.13
2023-01-23T12:46:57.856Z,98436.05
2023-01-23T12:49:40.645Z,98439.95
2023-01-23T12:52:17.826Z,98447.17
2023-01-23T12:54:52.090Z,98440.74
2023-01-23T12:57:27.251Z,98448.29
2023-01-23T13:00:00.682Z,98436.04
2023-01-23T13:02:40.201Z,98445.95
2023-01-23T13:05:15.852Z,98446.58
2023-01-23T13:08:09.753Z,98445.23
2023-01-23T13:11:09.129Z,98445.00
2023-01-23T13:13:36.499Z,98444.91
2023-01-23T13:16:12.884Z,98448.86
2023-01-23T13:18:58.860Z,98452.05
2023-01-23T13:21:44.802Z,98450.89
2023-01-23T13:24:49.189Z,98447.45
2023-01-23T13:27:41.378Z,98451.60
2023-01-23T13:30:35.496Z,98470.70
2023-01-23T13:33:14.907Z,98457.25
2023-01-23T13:35:46.156Z,98456.81
2023-01-23T13:38:29.309Z,98464.99
2023-01-23T13:41:08.836Z,98467.63
2023-01-23T13:43:56.383Z,98467.83
2023-01-23T13:46:42.082Z,98462.87
2023-01-23T13:49:53.220Z,98464.94
2023-01-23T13:52:43.813Z,98470.44
2023-01-23T13:55:45.386Z,98467.09
2023-01-23T13:58:15.964Z,98472.30
2023-01-23T14:00:49.043Z,98479.70
2023-01-23T14:03:44.269Z,98474.17
2023-01-23T14:06:11.962Z,98472.73
2023-01-23T14:08:50.686Z,98477.19
2023-01-23T14:11:20.928Z,98488.07
2023-01-23T14:13:58.007Z,98483.09
2023-01-23T14:16:25.427Z,98487.87
2023-01-23T14:18:55.274Z,98487.72
2023-01-23T14:21:30.524Z,98491.94
2023-01-23T14:23:59.743Z,98496.94
2023-01-23T14:26:31.953Z,98483.92
2023-01-23T14:29:04.011Z,98487.28
2023-01-23T14:31:36.943Z,98493.87
2023-01-23T14:34:10.434Z,98497.51
2023-01-23T14:36:37.293Z,98490.94
2023-01-23T14:39:05.330Z,98499.95
2023-01-23T14:41:38.249Z,98500.66
2023-01-23T14:44:04.895Z,98501.84
2023-01-23T14:46:42.951Z,98511.94
2023-01-23T14:49:10.737Z,98511.52
2023-01-23T14:51:38.344Z,98510.63
2023-01-23T14:54:20.354Z,98514.29
2023-01-23T14:56:46.819Z,98514.98
2023-01-23T14:59:29.798Z,98516.80
2023-01-23T15:02:00.716Z,98517.44
2023-01-23T15:04:29.140Z,98519.00
2023-01-23T15:06:58.879Z,98512.71
2023-01-23T15:09:40.059Z,98522.56
2023-01-23T15:12:14.045Z,98518.12
2023-01-23T15:14:41.973Z,98523.69
2023-01-23T15:17:18.167Z,98524.64
2023-01-23T15:19:50.773Z,98523.45
2023-01-23T15:22:21.224Z,98540.22
2023-01-23T15:24:51.481Z,98535.05
2023-01-23T15:27:33.224Z,98539.20
2023-01-23T15:30:37.832Z,98534.52
2023-01-23T15:33:08.607Z,98544.23
2023-01-23T15:35:37.485Z,98544.63
2023-01-23T15:38:08.402Z,98545.81
2023-01-23T15:40:37.663Z,98542.67
2023-01-23T15:43:08.169Z,98543.53
2023-01-23T15:45:35.501Z,98545.19
2023-01-23T15:48:02.868Z,98546.05
2023-01-23T15:50:30.318Z,98549.57
2023-01-23T15:52:57.991Z,98549.88
2023-01-23T15:55:26.719Z,98545.63
2023-01-23T15:57:55.097Z,98545.39
2023-01-23T16:00:25.165Z,98555.32
2023-01-23T16:02:57.370Z,98554.82
2023-01-23T16:05:26.838Z,98559.93
2023-01-23T16:07:56.121Z,98560.22
2023-01-23T16:10:25.940Z,98557.00
2023-01-23T16:12:56.831Z,98560.22
2023-01-23T16:15:27.610Z,98569.05
2023-01-23T16:17:55.746Z,98560.73
2023-01-23T16:20:33.882Z,98570.64
2023-01-23T16:23:14.063Z,98569.55
2023-01-23T16:25:44.541Z,98580.01
2023-01-23T16:28:13.141Z,98572.23
2023-01-23T16:30:40.590Z,98573.88
2023-01-23T16:33:08.299Z,98571.20
2023-01-23T16:35:35.839Z,98573.88
2023-01-23T16:38:03.321Z,98582.16
2023-01-23T16:40:31.506Z,98580.01
2023-01-23T16:42:59.537Z,98581.10
2023-01-23T16:45:29.894Z,98579.23
2023-01-23T16:47:57.339Z,98581.16
2023-01-23T16:50:33.637Z,98587.35
2023-01-23T16:53:25.573Z,98583.66
2023-01-23T16:55:57.902Z,98591.44
2023-01-23T16:58:31.772Z,98596.03
2023-01-23T17:01:04.629Z,98587.23
2023-01-23T17:03:36.786Z,98577.61
2023-01-23T17:06:04.454Z,98584.86
2023-01-23T17:08:31.967Z,98585.67
2023-01-23T17:11:03.021Z,98582.48
2023-01-23T17:13:34.068Z,98589.18
2023-01-23T17:16:03.669Z,98597.22
2023-01-23T17:18:33.816Z,98592.13
2023-01-23T17:21:02.225Z,98586.25
2023-01-23T17:23:29.758Z,98591.06
2023-01-23T17:26:01.308Z,98591.06
2023-01-23T17:28:29.535Z,98588.10
2023-01-23T17:30:59.643Z,98587.30
2023-01-23T17:33:30.592Z,98585.41
2023-01-23T17:35:58.267Z,98591.55
2023-01-23T17:38:27.980Z,98590.73
2023-01-23T17:40:55.424Z,98590.42
2023-01-23T17:43:23.651Z,98591.73
2023-01-23T17:45:51.390Z,98593.84
2023-01-23T17:48:22.478Z,98595.17
2023-01-23T17:50:50.038Z,98590.34
2023-01-23T17:53:18.819Z,98593.53
2023-01-23T17:55:50.797Z,98590.57
2023-01-23T17:58:18.989Z,98594.53
2023-01-23T18:00:48.738Z,98597.73
2023-01-23T18:03:22.672Z,98602.20
2023-01-23T18:05:51.097Z,98598.42
2023-01-23T18:08:21.456Z,98597.05
2023-01-23T18:10:51.513Z,98598.05
2023-01-23T18:13:52.409Z,98598.02
2023-01-23T18:16:29.325Z,98601.43
2023-01-23T18:18:59.216Z,98596.02
2023-01-23T18:21:27.344Z,98594.91
2023-01-23T18:23:55.084Z,98595.95
2023-01-23T18:26:38.501Z,98597.76
2023-01-23T18:29:18.886Z,98597.97
2023-01-23T18:31:55.431Z,98587.79
2023-01-23T18:34:43.803Z,98587.73
2023-01-23T18:37:47.850Z,98593.27
2023-01-23T18:40:22.383Z,98599.33
2023-01-23T18:42:56.193Z,98594.97
2023-01-23T18:45:30.833Z,98595.20
2023-01-23T18:48:25.019Z,98600.22
2023-01-23T18:51:06.259Z,98605.78
2023-01-23T18:54:13.195Z,98607.04
2023-01-23T18:57:09.857Z,98614.98
2023-01-23T18:59:49.716Z,98610.95
2023-01-23T19:02:24.115Z,98617.00
2023-01-23T19:05:10.928Z,98616.42
2023-01-23T19:07:39.780Z,98610.27
2023-01-23T19:10:12.676Z,98614.48
2023-01-23T19:12:46.812Z,98611.75
2023-01-23T19:15:29.575Z,98618.61
2023-01-23T19:18:11.495Z,98616.98
2023-01-23T19:20:45.916Z,98613.70
2023-01-23T19:23:25.549Z,98616.31
2023-01-23T19:25:53.513Z,98628.52
2023-01-23T19:28:21.460Z,98620.00
2023-01-23T19:30:49.938Z,98628.50
2023-01-23T19:33:18.509Z,98622.66
2023-01-23T19:35:46.424Z,98628.77
2023-01-23T19:38:14.384Z,98630.63
2023-01-23T19:40:42.492Z,98636.70
2023-01-23T19:43:18.732Z,98635.38
2023-01-23T19:45:46.450Z,98638.84
2023-01-23T19:48:27.944Z,98643.88
2023-01-23T19:51:03.288Z,98645.17
2023-01-23T19:53:32.163Z,98644.63
2023-01-23T19:56:05.526Z,98645.66
2023-01-23T19:58:33.970Z,98642.73
2023-01-23T20:01:02.053Z,98648.83
2023-01-23T20:03:29.926Z,98639.76
2023-01-23T20:06:00.042Z,98649.53
2023-01-23T20:08:27.396Z,98641.25
2023-01-23T20:10:54.596Z,98646.22
2023-01-23T20:13:22.163Z,98644.09
2023-01-23T20:15:50.704Z,98650.98
2023-01-23T20:18:18.129Z,98647.00
2023-01-23T20:20:45.681Z,98648.06
2023-01-23T20:23:13.358Z,98649.89
2023-01-23T20:25:42.077Z,98652.27
2023-01-23T20:28:10.619Z,98654.13
2023-01-23T20:30:38.828Z,98660.25
2023-01-23T20:33:07.072Z,98656.79
2023-01-23T20:35:37.285Z,98661.83
2023-01-23T20:38:04.872Z,98665.02
2023-01-23T20:40:34.210Z,98659.13
2023-01-23T20:43:03.247Z,98672.14
2023-01-23T20:45:34.692Z,98673.70
2023-01-23T20:48:04.355Z,98678.17
2023-01-23T20:50:31.803Z,98670.17
2023-01-23T20:53:17.325Z,98681.34
2023-01-23T20:55:45.454Z,98679.44
2023-01-23T20:58:31.261Z,98676.50
2023-01-23T21:00:58.912Z,98680.71
2023-01-23T21:03:26.620Z,98684.16
2023-01-23T21:05:54.369Z,98683.84
2023-01-23T21:08:22.783Z,98685.66
2023-01-23T21:10:55.895Z,98692.02
2023-01-23T21:13:23.618Z,98692.76
2023-01-23T21:16:07.695Z,98692.48
2023-01-23T21:18:38.152Z,98697.50
2023-01-23T21:21:07.572Z,98699.63
2023-01-23T21:23:38.600Z,98698.30
2023-01-23T21:26:08.441Z,98698.88
2023-01-23T21:28:36.044Z,98700.73
2023-01-23T21:31:27.409Z,98706.84
2023-01-23T21:33:55.180Z,98705.23
2023-01-23T21:36:24.453Z,98705.77
2023-01-23T21:38:52.551Z,98703.34
2023-01-23T21:41:20.768Z,98699.08
2023-01-23T21:43:48.454Z,98702.26
2023-01-23T21:46:16.199Z,98697.17
2023-01-23T21:48:43.715Z,98701.41
2023-01-23T21:51:16.122Z,98709.11
2023-01-23T21:53:45.913Z,98705.34
2023-01-23T21:56:15.545Z,98702.96
2023-01-23T21:58:43.989Z,98702.69
2023-01-23T22:01:32.578Z,98697.09
2023-01-23T22:04:09.782Z,98693.64
2023-01-23T22:06:38.979Z,98703.47
2023-01-23T22:09:07.507Z,98698.37
2023-01-23T22:11:35.272Z,98696.72
2023-01-23T22:14:02.872Z,98696.45
2023-01-23T22:16:47.116Z,98696.92
2023-01-23T22:18:59.791Z,98697.98
2023-01-23T22:21:27.226Z,98695.02
2023-01-23T22:23:54.524Z,98694.75
2023-01-23T22:26:22.386Z,98691.56
2023-01-23T22:28:50.382Z,98686.78
2023-01-23T22:31:17.988Z,98689.70
2023-01-23T22:33:47.672Z,98681.19
2023-01-23T22:36:17.838Z,98684.13
2023-01-23T22:38:51.789Z,98680.14
2023-01-23T22:41:19.335Z,98682.52
2023-01-23T22:43:46.770Z,98681.67
2023-01-23T22:46:15.901Z,98683.22
2023-01-23T22:48:43.559Z,98685.85
2023-01-23T22:51:15.926Z,98684.22
2023-01-23T22:53:43.483Z,98683.67
2023-01-23T22:56:11.329Z,98685.22
2023-01-23T22:58:39.165Z,98682.02
2023-01-23T23:01:06.517Z,98676.91
2023-01-23T23:03:34.284Z,98672.02
2023-01-23T23:06:04.576Z,98675.67
2023-01-23T23:08:33.308Z,98674.34
2023-01-23T23:11:06.210Z,98669.03
2023-01-23T23:13:36.107Z,98677.19
2023-01-23T23:16:06.501Z,98669.64
2023-01-23T23:18:38.190Z,98672.88
2023-01-23T23:21:07.186Z,98675.28
2023-01-23T23:23:35.675Z,98675.59
2023-01-23T23:26:04.435Z,98678.46
2023-01-23T23:28:31.976Z,98676.75
2023-01-23T23:30:59.634Z,98678.80
2023-01-23T23:33:27.689Z,98674.73
2023-01-23T23:35:57.951Z,98673.02
2023-01-23T23:38:26.381Z,98680.06
2023-01-23T23:40:58.336Z,98669.83
2023-01-23T23:43:26.809Z,98670.55
2023-01-23T23:45:56.046Z,98660.59
2023-01-23T23:48:25.080Z,98663.19
2023-01-23T23:50:52.874Z,98663.41
2023-01-23T23:53:22.211Z,98664.45
2023-01-23T23:55:49.608Z,98661.19
2023-01-23T23:58:16.971Z,98664.55
